createdAt,value
2018-07-28T00:00:23.195Z,27.40
2018-07-28T00:02:50.539Z,27.30
2018-07-28T00:05:17.883Z,27.10
2018-07-28T00:07:45.194Z,27.10
2018-07-28T00:10:12.522Z,26.90
2018-07-28T00:12:39.866Z,26.90
2018-07-28T00:15:09.196Z,26.80
2018-07-28T00:17:36.756Z,26.80
2018-07-28T00:20:05.251Z,26.80
2018-07-28T00:22:32.612Z,26.80
2018-07-28T00:24:59.919Z,26.80
2018-07-28T00:27:27.260Z,26.80
2018-07-28T00:29:54.611Z,26.80
2018-07-28T00:32:21.932Z,26.80
2018-07-28T00:34:49.267Z,26.80
2018-07-28T00:37:16.659Z,26.70
2018-07-28T00:39:44.015Z,26.60
2018-07-28T00:42:11.363Z,26.60
2018-07-28T00:44:38.696Z,26.60
2018-07-28T00:47:06.021Z,26.50
2018-07-28T00:49:33.330Z,26.50
2018-07-28T00:54:27.827Z,26.60
2018-07-28T00:56:55.204Z,26.50
2018-07-28T00:59:22.463Z,26.50
2018-07-28T01:01:49.796Z,26.40
2018-07-28T01:04:17.099Z,26.40
2018-07-28T01:06:44.415Z,26.50
2018-07-28T01:09:11.779Z,26.50
2018-07-28T01:11:39.145Z,26.30
2018-07-28T01:16:33.667Z,26.20
2018-07-28T01:19:00.987Z,26.20
2018-07-28T01:21:28.423Z,26.10
2018-07-28T01:23:55.749Z,26.00
2018-07-28T01:26:23.075Z,25.90
2018-07-28T01:28:50.391Z,25.70
2018-07-28T01:31:17.696Z,25.60
2018-07-28T01:33:45.031Z,25.40
2018-07-28T01:36:12.383Z,25.40
2018-07-28T01:38:39.738Z,25.40
2018-07-28T01:41:07.090Z,25.50
2018-07-28T01:43:34.423Z,25.50
2018-07-28T01:46:01.748Z,25.60
2018-07-28T01:48:29.087Z,25.60
2018-07-28T01:50:56.423Z,25.70
2018-07-28T01:53:23.736Z,25.70
2018-07-28T01:55:51.063Z,25.70
2018-07-28T01:58:18.397Z,25.70
2018-07-28T02:00:45.715Z,25.70
2018-07-28T02:03:13.052Z,25.80
2018-07-28T02:05:40.383Z,25.70
2018-07-28T02:08:07.748Z,25.60
2018-07-28T02:10:35.060Z,25.60
2018-07-28T02:13:02.383Z,25.70
2018-07-28T02:15:29.694Z,25.60
2018-07-28T02:17:57.045Z,25.50
2018-07-28T02:20:24.375Z,25.40
2018-07-28T02:22:51.711Z,25.40
2018-07-28T02:25:19.022Z,25.30
2018-07-28T02:27:46.615Z,25.20
2018-07-28T02:30:14.094Z,25.10
2018-07-28T02:32:41.398Z,25.20
2018-07-28T02:35:08.777Z,25.40
2018-07-28T02:37:36.114Z,25.30
2018-07-28T02:40:03.945Z,25.30
2018-07-28T02:42:31.277Z,25.30
2018-07-28T02:44:58.611Z,25.30
2018-07-28T02:47:25.943Z,25.30
2018-07-28T02:49:53.346Z,25.30
2018-07-28T02:52:20.703Z,25.30
2018-07-28T02:54:48.036Z,25.30
2018-07-28T02:57:15.370Z,25.10
2018-07-28T02:59:42.689Z,25.10
2018-07-28T03:02:10.015Z,24.90
2018-07-28T03:04:37.336Z,24.70
2018-07-28T03:07:05.340Z,24.60
2018-07-28T03:09:32.739Z,24.60
2018-07-28T03:12:00.126Z,24.60
2018-07-28T03:14:27.496Z,24.70
2018-07-28T03:16:54.784Z,24.60
2018-07-28T03:19:22.088Z,24.60
2018-07-28T03:21:49.417Z,24.60
2018-07-28T03:24:16.712Z,24.60
2018-07-28T03:26:44.083Z,24.40
2018-07-28T03:29:11.419Z,24.40
2018-07-28T03:31:38.760Z,24.30
2018-07-28T03:34:06.481Z,24.30
2018-07-28T03:36:33.799Z,24.40
2018-07-28T03:39:01.171Z,24.40
2018-07-28T03:41:28.491Z,24.50
2018-07-28T03:43:55.860Z,24.50
2018-07-28T03:46:23.160Z,24.40
2018-07-28T03:48:50.487Z,24.40
2018-07-28T03:51:17.808Z,24.40
2018-07-28T03:53:45.138Z,24.40
2018-07-28T03:56:12.472Z,24.30
2018-07-28T03:58:39.815Z,24.20
2018-07-28T04:01:07.183Z,24.20
2018-07-28T04:03:34.512Z,24.20
2018-07-28T04:06:01.844Z,24.20
2018-07-28T04:08:29.166Z,24.20
2018-07-28T04:10:56.503Z,24.30
2018-07-28T04:13:23.854Z,24.20
2018-07-28T04:15:51.174Z,24.40
2018-07-28T04:18:18.483Z,24.30
2018-07-28T04:20:45.822Z,24.10
2018-07-28T04:23:13.138Z,24.00
2018-07-28T04:25:40.490Z,24.10
2018-07-28T04:28:07.855Z,24.10
2018-07-28T04:30:35.215Z,24.20
2018-07-28T04:33:02.523Z,24.20
2018-07-28T04:35:29.862Z,24.10
2018-07-28T04:37:57.258Z,23.90
2018-07-28T04:40:24.582Z,24.00
2018-07-28T04:42:51.882Z,24.10
2018-07-28T04:45:19.231Z,24.10
2018-07-28T04:47:46.544Z,24.20
2018-07-28T04:50:13.920Z,24.20
2018-07-28T04:52:41.271Z,24.20
2018-07-28T04:55:08.644Z,24.20
2018-07-28T04:57:36.058Z,24.30
2018-07-28T05:00:04.092Z,24.30
2018-07-28T05:02:31.407Z,24.40
2018-07-28T05:04:58.739Z,24.60
2018-07-28T05:07:26.116Z,24.80
2018-07-28T05:09:53.624Z,24.90
2018-07-28T05:12:20.978Z,24.90
2018-07-28T05:14:48.291Z,24.90
2018-07-28T05:17:15.589Z,24.90
2018-07-28T05:19:42.918Z,25.00
2018-07-28T05:22:10.369Z,25.10
2018-07-28T05:24:37.768Z,25.10
2018-07-28T05:27:05.208Z,25.10
2018-07-28T05:29:32.593Z,25.00
2018-07-28T05:31:59.899Z,25.00
2018-07-28T05:34:27.248Z,25.10
2018-07-28T05:36:54.564Z,25.20
2018-07-28T05:39:21.867Z,25.30
2018-07-28T05:41:49.215Z,25.40
2018-07-28T05:44:17.220Z,25.60
2018-07-28T05:46:44.581Z,25.60
2018-07-28T05:49:11.919Z,25.80
2018-07-28T05:51:39.288Z,25.90
2018-07-28T05:54:06.676Z,25.90
2018-07-28T05:56:33.987Z,26.20
2018-07-28T05:59:01.339Z,26.30
2018-07-28T06:01:28.821Z,26.50
2018-07-28T06:03:56.151Z,26.70
2018-07-28T06:06:23.508Z,26.90
2018-07-28T06:08:50.824Z,27.10
2018-07-28T06:11:18.163Z,27.40
2018-07-28T06:13:45.479Z,27.60
2018-07-28T06:16:12.816Z,27.70
2018-07-28T06:18:40.135Z,28.00
2018-07-28T06:21:07.487Z,28.10
2018-07-28T06:23:34.859Z,28.20
2018-07-28T06:26:02.236Z,28.40
2018-07-28T06:28:29.499Z,28.40
2018-07-28T06:30:56.853Z,28.50
2018-07-28T06:33:24.171Z,28.60
2018-07-28T06:35:51.509Z,28.60
2018-07-28T06:38:18.817Z,28.70
2018-07-28T06:40:46.155Z,28.70
2018-07-28T06:43:13.468Z,28.80
2018-07-28T06:45:40.883Z,28.90
2018-07-28T06:48:08.233Z,29.00
2018-07-28T06:50:35.579Z,29.00
2018-07-28T06:53:02.908Z,29.00
2018-07-28T06:57:57.443Z,28.60
2018-07-28T07:00:24.800Z,28.60
2018-07-28T07:02:52.094Z,28.60
2018-07-28T07:05:19.428Z,28.60
2018-07-28T07:07:47.990Z,28.50
2018-07-28T07:10:15.348Z,28.40
2018-07-28T07:12:42.684Z,28.30
2018-07-28T07:15:10.060Z,28.30
2018-07-28T07:17:37.455Z,27.80
2018-07-28T07:20:04.770Z,26.70
2018-07-28T07:22:32.079Z,26.00
2018-07-28T07:24:59.396Z,25.10
2018-07-28T07:27:26.788Z,24.80
2018-07-28T07:29:54.143Z,24.60
2018-07-28T07:32:21.434Z,24.60
2018-07-28T07:34:48.848Z,24.60
2018-07-28T07:37:16.187Z,24.60
2018-07-28T07:39:43.965Z,24.80
2018-07-28T07:42:11.852Z,24.90
2018-07-28T07:44:39.247Z,25.10
2018-07-28T07:47:06.724Z,25.30
2018-07-28T07:49:34.013Z,25.20
2018-07-28T07:52:01.332Z,25.10
2018-07-28T07:54:28.665Z,25.10
2018-07-28T07:56:55.980Z,25.10
2018-07-28T07:59:23.349Z,25.00
2018-07-28T08:01:50.647Z,25.00
2018-07-28T08:04:17.965Z,25.00
2018-07-28T08:06:45.295Z,24.90
2018-07-28T08:09:12.634Z,24.80
2018-07-28T08:11:39.979Z,24.70
2018-07-28T08:14:07.441Z,24.60
2018-07-28T08:19:01.999Z,24.60
2018-07-28T08:21:29.321Z,24.40
2018-07-28T08:23:56.722Z,24.30
2018-07-28T08:26:24.045Z,24.40
2018-07-28T08:28:51.405Z,24.60
2018-07-28T08:31:18.752Z,24.80
2018-07-28T08:33:46.570Z,25.00
2018-07-28T08:38:41.190Z,25.50
2018-07-28T08:41:08.599Z,25.60
2018-07-28T08:43:36.005Z,25.80
2018-07-28T08:46:03.352Z,26.20
2018-07-28T08:48:30.704Z,26.60
2018-07-28T08:50:58.008Z,26.80
2018-07-28T08:53:25.327Z,27.00
2018-07-28T08:55:52.667Z,27.10
2018-07-28T08:58:20.809Z,27.20
2018-07-28T09:00:48.143Z,27.40
2018-07-28T09:03:15.452Z,27.50
2018-07-28T09:05:42.782Z,27.60
2018-07-28T09:08:10.133Z,27.40
2018-07-28T09:10:37.545Z,26.90
2018-07-28T09:13:04.800Z,26.70
2018-07-28T09:15:32.117Z,26.90
2018-07-28T09:17:59.557Z,27.30
2018-07-28T09:20:26.853Z,27.20
2018-07-28T09:22:54.157Z,26.90
2018-07-28T09:25:21.519Z,26.70
2018-07-28T09:27:48.824Z,26.50
2018-07-28T09:30:16.172Z,26.30
2018-07-28T09:32:43.465Z,26.40
2018-07-28T09:35:10.808Z,26.50
2018-07-28T09:37:38.245Z,26.70
2018-07-28T09:40:05.557Z,26.70
2018-07-28T09:42:32.916Z,26.60
2018-07-28T09:45:00.269Z,26.70
2018-07-28T09:47:27.574Z,26.70
2018-07-28T09:49:54.907Z,26.60
2018-07-28T09:52:22.264Z,26.50
2018-07-28T09:54:49.575Z,26.50
2018-07-28T09:57:16.912Z,26.30
2018-07-28T09:59:44.247Z,26.30
2018-07-28T10:02:11.576Z,26.50
2018-07-28T10:04:38.923Z,26.50
2018-07-28T10:07:06.557Z,26.70
2018-07-28T10:09:33.839Z,27.00
2018-07-28T10:12:01.195Z,27.30
2018-07-28T10:14:28.533Z,27.20
2018-07-28T10:16:55.898Z,27.40
2018-07-28T10:19:23.220Z,27.50
2018-07-28T10:21:50.635Z,27.70
2018-07-28T10:24:17.946Z,28.10
2018-07-28T10:26:45.339Z,28.40
2018-07-28T10:29:12.766Z,28.70
2018-07-28T10:31:40.064Z,29.10
2018-07-28T10:34:07.388Z,29.40
2018-07-28T10:36:34.743Z,29.80
2018-07-28T10:39:02.423Z,30.10
2018-07-28T10:41:29.748Z,30.20
2018-07-28T10:43:57.092Z,30.20
2018-07-28T10:46:24.412Z,30.40
2018-07-28T10:51:19.068Z,30.50
2018-07-28T10:53:46.456Z,30.60
2018-07-28T10:56:13.869Z,30.50
2018-07-28T10:58:41.209Z,30.50
2018-07-28T11:01:08.519Z,30.60
2018-07-28T11:03:35.840Z,30.60
2018-07-28T11:06:03.172Z,30.70
2018-07-28T11:08:30.488Z,30.80
2018-07-28T11:10:57.909Z,30.80
2018-07-28T11:13:25.221Z,30.80
2018-07-28T11:15:52.551Z,30.70
2018-07-28T11:18:20.114Z,30.40
2018-07-28T11:20:47.406Z,30.30
2018-07-28T11:24:22.171Z,30.40
2018-07-28T11:26:49.495Z,30.60
2018-07-28T11:29:16.840Z,30.80
2018-07-28T11:31:55.780Z,31.00
2018-07-28T11:34:34.484Z,31.30
2018-07-28T11:37:13.343Z,31.50
2018-07-28T11:39:52.283Z,31.60
2018-07-28T11:42:31.107Z,31.70
2018-07-28T11:45:01.344Z,31.60
2018-07-28T11:47:28.776Z,31.70
2018-07-28T11:49:56.093Z,31.70
2018-07-28T11:52:23.404Z,31.70
2018-07-28T11:54:50.795Z,31.60
2018-07-28T11:57:18.099Z,31.60
2018-07-28T11:59:45.436Z,31.60
2018-07-28T12:02:12.843Z,31.40
2018-07-28T12:04:40.331Z,31.10
2018-07-28T12:07:07.642Z,31.00
2018-07-28T12:09:34.965Z,31.10
2018-07-28T12:12:02.340Z,31.30
2018-07-28T12:14:29.754Z,31.50
2018-07-28T12:16:57.114Z,31.80
2018-07-28T12:19:24.435Z,31.90
2018-07-28T12:21:51.795Z,31.70
2018-07-28T12:24:19.177Z,31.60
2018-07-28T12:26:46.539Z,31.50
2018-07-28T12:29:13.882Z,31.40
2018-07-28T12:31:41.224Z,31.30
2018-07-28T12:34:08.519Z,31.10
2018-07-28T12:36:35.916Z,30.90
2018-07-28T12:39:05.399Z,30.90
2018-07-28T12:41:32.774Z,30.90
2018-07-28T12:44:00.121Z,30.90
2018-07-28T12:46:27.528Z,30.90
2018-07-28T12:48:54.837Z,30.80
2018-07-28T12:51:22.175Z,30.70
2018-07-28T12:53:49.569Z,30.80
2018-07-28T12:56:16.970Z,30.80
2018-07-28T12:58:44.301Z,30.80
2018-07-28T13:01:11.628Z,30.90
2018-07-28T13:03:39.039Z,30.90
2018-07-28T13:06:06.360Z,31.00
2018-07-28T13:08:33.672Z,31.00
2018-07-28T13:11:01.081Z,29.70
2018-07-28T13:13:28.425Z,28.60
2018-07-28T13:15:55.795Z,28.10
2018-07-28T13:18:23.127Z,27.90
2018-07-28T13:20:50.496Z,27.70
2018-07-28T13:23:17.820Z,27.30
2018-07-28T13:25:45.144Z,27.20
2018-07-28T13:28:12.461Z,27.20
2018-07-28T13:30:39.874Z,27.50
2018-07-28T13:33:07.192Z,27.50
2018-07-28T13:35:34.561Z,27.40
2018-07-28T13:38:02.064Z,27.30
2018-07-28T13:40:29.366Z,27.10
2018-07-28T13:42:56.732Z,27.10
2018-07-28T13:45:24.037Z,27.00
2018-07-28T13:47:51.377Z,26.90
2018-07-28T13:50:18.686Z,26.70
2018-07-28T13:52:45.992Z,26.70
2018-07-28T13:55:13.343Z,26.70
2018-07-28T13:57:40.683Z,26.50
2018-07-28T14:00:08.040Z,26.40
2018-07-28T14:02:35.329Z,26.20
2018-07-28T14:05:02.779Z,26.10
2018-07-28T14:07:30.243Z,26.10
2018-07-28T14:09:57.592Z,26.10
2018-07-28T14:12:24.939Z,26.30
2018-07-28T14:14:52.341Z,26.40
2018-07-28T14:17:19.638Z,26.40
2018-07-28T14:19:47.036Z,26.60
2018-07-28T14:22:14.379Z,26.90
2018-07-28T14:24:41.689Z,27.20
2018-07-28T14:27:09.001Z,27.30
2018-07-28T14:29:36.366Z,27.30
2018-07-28T14:32:03.672Z,27.40
2018-07-28T14:34:31.137Z,27.40
2018-07-28T14:36:58.836Z,27.40
2018-07-28T14:39:26.169Z,27.60
2018-07-28T14:41:53.479Z,27.60
2018-07-28T14:44:20.911Z,27.60
2018-07-28T14:46:48.253Z,27.60
2018-07-28T14:49:15.575Z,27.50
2018-07-28T14:51:42.959Z,27.40
2018-07-28T14:54:10.318Z,27.60
2018-07-28T14:56:37.619Z,28.00
2018-07-28T14:59:05.105Z,28.40
2018-07-28T15:01:32.546Z,28.60
2018-07-28T15:03:59.902Z,28.50
2018-07-28T15:06:27.211Z,28.40
2018-07-28T15:08:54.576Z,28.20
2018-07-28T15:11:21.879Z,28.20
2018-07-28T15:13:50.798Z,28.30
2018-07-28T15:16:18.082Z,28.40
2018-07-28T15:18:45.894Z,28.60
2018-07-28T15:21:13.287Z,28.70
2018-07-28T15:23:40.939Z,28.90
2018-07-28T15:26:08.246Z,29.20
2018-07-28T15:28:35.568Z,29.30
2018-07-28T15:31:02.890Z,29.10
2018-07-28T15:33:30.228Z,28.80
2018-07-28T15:35:57.614Z,28.80
2018-07-28T15:38:24.964Z,29.00
2018-07-28T15:40:52.296Z,29.30
2018-07-28T15:43:19.661Z,29.30
2018-07-28T15:45:46.981Z,29.30
2018-07-28T15:48:14.429Z,29.40
2018-07-28T15:50:41.783Z,29.20
2018-07-28T15:53:09.130Z,29.10
2018-07-28T15:55:36.441Z,29.10
2018-07-28T15:58:03.763Z,29.30
2018-07-28T16:00:31.098Z,29.30
2018-07-28T16:02:58.416Z,29.30
2018-07-28T19:31:39.074Z,25.90
2018-07-28T19:34:06.405Z,26.00
2018-07-28T19:39:00.944Z,26.30
2018-07-28T19:41:28.339Z,26.30
2018-07-28T19:43:55.643Z,26.30
2018-07-28T19:46:22.960Z,26.30
2018-07-28T19:48:50.316Z,26.30
2018-07-28T19:51:17.658Z,26.30
2018-07-28T19:53:44.974Z,26.20
2018-07-28T19:56:12.275Z,26.20
2018-07-28T19:58:39.611Z,26.10
2018-07-28T20:01:06.981Z,26.10
2018-07-28T20:03:34.359Z,26.10
2018-07-28T20:06:01.675Z,26.20
2018-07-28T20:08:29.044Z,26.20
2018-07-28T20:10:56.420Z,26.30
2018-07-28T20:13:23.791Z,26.20
2018-07-28T20:15:51.112Z,26.10
2018-07-28T20:18:18.600Z,26.10
2018-07-28T20:20:45.943Z,26.20
2018-07-28T20:23:13.264Z,26.30
2018-07-28T20:25:40.617Z,26.40
2018-07-28T20:28:07.945Z,26.50
2018-07-28T20:30:35.259Z,26.50
2018-07-28T20:33:02.587Z,26.60
2018-07-28T20:35:29.914Z,26.60
2018-07-28T20:37:57.305Z,26.60
2018-07-28T20:40:24.602Z,26.60
2018-07-28T20:42:51.932Z,26.70
2018-07-28T20:45:19.315Z,26.60
2018-07-28T20:47:46.627Z,26.40
2018-07-28T20:50:13.927Z,26.20
2018-07-28T20:52:41.347Z,26.00
2018-07-28T20:55:08.694Z,25.80
2018-07-28T20:57:36.021Z,25.50
2018-07-28T21:00:03.344Z,25.50
2018-07-28T21:02:30.664Z,25.50
2018-07-28T21:04:57.991Z,25.60
2018-07-28T21:07:25.312Z,25.60
2018-07-28T21:09:52.967Z,25.70
2018-07-28T21:12:20.287Z,25.60
2018-07-28T21:14:47.621Z,25.60
2018-07-28T21:17:14.955Z,25.40
2018-07-28T21:19:42.322Z,25.20
2018-07-28T21:22:09.638Z,25.00
2018-07-28T21:24:36.937Z,24.60
2018-07-28T21:27:04.379Z,24.40
2018-07-28T21:29:31.691Z,24.50
2018-07-28T21:31:59.058Z,24.50
2018-07-28T21:34:26.363Z,24.50
2018-07-28T21:36:53.679Z,24.50
2018-07-28T21:39:21.013Z,24.50
2018-07-28T21:41:49.059Z,24.70
2018-07-28T21:44:16.392Z,24.90
2018-07-28T21:46:43.732Z,24.90
2018-07-28T21:49:11.079Z,24.90
2018-07-28T21:51:38.379Z,25.00
2018-07-28T21:54:05.707Z,24.90
2018-07-28T21:56:33.027Z,24.90
2018-07-28T21:59:00.343Z,24.90
2018-07-28T22:01:27.683Z,24.80
2018-07-28T22:03:55.025Z,24.80
2018-07-28T22:06:23.107Z,24.80
2018-07-28T22:08:50.472Z,24.80
2018-07-28T22:11:17.795Z,24.60
2018-07-28T22:13:45.143Z,24.30
2018-07-28T22:16:12.432Z,24.20
2018-07-28T22:18:39.767Z,24.00
2018-07-28T22:21:07.209Z,23.90
2018-07-28T22:23:34.521Z,23.80
2018-07-28T22:26:01.831Z,23.70
2018-07-28T22:28:29.324Z,23.70
2018-07-28T22:30:56.646Z,23.70
2018-07-28T22:33:23.994Z,23.70
2018-07-28T22:35:51.381Z,23.80
2018-07-28T22:38:18.741Z,23.80
2018-07-28T22:40:46.095Z,23.80
2018-07-28T22:43:13.415Z,23.90
2018-07-28T22:45:40.767Z,24.00
2018-07-28T22:48:08.104Z,24.10
2018-07-28T22:50:35.471Z,24.10
2018-07-28T22:53:02.776Z,23.90
2018-07-28T22:55:30.091Z,23.90
2018-07-28T22:57:57.404Z,23.90
2018-07-28T23:00:24.783Z,23.90
2018-07-28T23:02:52.224Z,23.90
2018-07-28T23:05:19.576Z,23.90
2018-07-28T23:07:47.638Z,23.70
2018-07-28T23:10:14.975Z,23.70
2018-07-28T23:12:42.293Z,23.70
2018-07-28T23:15:09.616Z,23.70
2018-07-28T23:17:36.933Z,23.70
2018-07-28T23:20:04.381Z,23.60
2018-07-28T23:22:31.725Z,23.50
2018-07-28T23:24:59.083Z,23.40
2018-07-28T23:27:26.403Z,23.20
2018-07-28T23:29:53.756Z,23.10
2018-07-28T23:32:21.099Z,23.20
2018-07-28T23:34:48.424Z,23.30
2018-07-28T23:37:15.746Z,23.40
2018-07-28T23:39:43.134Z,23.50
2018-07-28T23:42:10.479Z,23.50
2018-07-28T23:44:37.799Z,23.50
2018-07-28T23:47:05.195Z,23.40
2018-07-28T23:49:32.528Z,23.40
2018-07-28T23:51:59.876Z,23.30
2018-07-28T23:54:27.209Z,23.30
2018-07-28T23:56:54.546Z,23.30
2018-07-28T23:59:21.859Z,23.40
